Eloy, Arizona
Current Conditions -  °F | °C
As of 3:55 PM on Friday 28 Nov 2014 (Local Time) from KCGZ Reporting Station
Clear Clear  
Wind Chill: 81°   Ceiling: Unl
Heat Index: 81°   Visibility: 10mi
Dew Point: 25°   Wind: 0mph
Humidity: 13%   Direction: NA
Pressure: 29.93"   Gusts: NA
Location:  32.75°N, 111.55°W
Report Text: KCGZ 282255Z AUTO 00000KT 10SM CLR 27/M04 A2993 RMK AO1
Loading
Personal Weather Stations






























Interactive Weather Map New forecast layout! Learn more

10-Day Weather Forecast

Advertisements
Track Severe Weather on mobile